sensor_id;sensor_type;location;lat;lon;timestamp;temperature;humidity
35746;DHT22;21870;42.812;74.628;2023-02-15T00:01:47;4.10;99.90
35746;DHT22;21870;42.812;74.628;2023-02-15T00:04:16;4.00;99.90
35746;DHT22;21870;42.812;74.628;2023-02-15T00:06:42;3.90;99.90
35746;DHT22;21870;42.812;74.628;2023-02-15T00:09:11;3.90;99.90
35746;DHT22;21870;42.812;74.628;2023-02-15T00:11:38;3.90;99.90
35746;DHT22;21870;42.812;74.628;2023-02-15T00:14:24;3.90;99.90
35746;DHT22;21870;42.812;74.628;2023-02-15T00:16:51;3.80;99.90
35746;DHT22;21870;42.812;74.628;2023-02-15T00:19:20;3.80;99.90
35746;DHT22;21870;42.812;74.628;2023-02-15T00:21:47;3.80;99.90
35746;DHT22;21870;42.812;74.628;2023-02-15T00:24:15;3.70;99.90
35746;DHT22;21870;42.812;74.628;2023-02-15T00:26:42;3.60;99.90
35746;DHT22;21870;42.812;74.628;2023-02-15T00:29:10;3.60;99.90
35746;DHT22;21870;42.812;74.628;2023-02-15T00:31:37;3.40;99.90
35746;DHT22;21870;42.812;74.628;2023-02-15T00:34:15;3.20;99.90
35746;DHT22;21870;42.812;74.628;2023-02-15T00:36:42;3.30;99.90
35746;DHT22;21870;42.812;74.628;2023-02-15T00:39:09;3.20;99.90
35746;DHT22;21870;42.812;74.628;2023-02-15T00:41:35;3.40;99.90
35746;DHT22;21870;42.812;74.628;2023-02-15T00:44:02;3.50;99.90
35746;DHT22;21870;42.812;74.628;2023-02-15T00:46:28;3.40;99.90
35746;DHT22;21870;42.812;74.628;2023-02-15T00:48:54;3.40;99.90
35746;DHT22;21870;42.812;74.628;2023-02-15T00:51:20;3.50;99.90
35746;DHT22;21870;42.812;74.628;2023-02-15T00:53:46;3.60;99.90
35746;DHT22;21870;42.812;74.628;2023-02-15T00:56:13;3.60;99.90
35746;DHT22;21870;42.812;74.628;2023-02-15T00:58:39;3.60;99.90
35746;DHT22;21870;42.812;74.628;2023-02-15T01:01:14;3.60;99.90
35746;DHT22;21870;42.812;74.628;2023-02-15T01:03:44;3.50;99.90
35746;DHT22;21870;42.812;74.628;2023-02-15T01:06:13;3.60;99.90
35746;DHT22;21870;42.812;74.628;2023-02-15T01:08:39;3.50;99.90
35746;DHT22;21870;42.812;74.628;2023-02-15T01:11:07;3.60;99.90
35746;DHT22;21870;42.812;74.628;2023-02-15T01:13:34;3.60;99.90
35746;DHT22;21870;42.812;74.628;2023-02-15T01:16:01;3.60;99.90
35746;DHT22;21870;42.812;74.628;2023-02-15T01:18:28;3.60;99.90
35746;DHT22;21870;42.812;74.628;2023-02-15T01:20:55;3.50;99.90
35746;DHT22;21870;42.812;74.628;2023-02-15T01:23:21;3.40;99.90
35746;DHT22;21870;42.812;74.628;2023-02-15T01:25:48;3.40;99.90
35746;DHT22;21870;42.812;74.628;2023-02-15T01:28:14;3.40;99.90
35746;DHT22;21870;42.812;74.628;2023-02-15T01:30:40;3.30;99.90
35746;DHT22;21870;42.812;74.628;2023-02-15T01:33:06;3.30;99.90
35746;DHT22;21870;42.812;74.628;2023-02-15T01:35:33;3.20;99.90
35746;DHT22;21870;42.812;74.628;2023-02-15T01:37:59;3.00;99.90
35746;DHT22;21870;42.812;74.628;2023-02-15T01:40:25;2.90;99.90
35746;DHT22;21870;42.812;74.628;2023-02-15T01:42:55;2.90;99.90
35746;DHT22;21870;42.812;74.628;2023-02-15T01:45:27;2.80;99.90
35746;DHT22;21870;42.812;74.628;2023-02-15T01:50:36;2.80;99.90
35746;DHT22;21870;42.812;74.628;2023-02-15T01:53:27;2.80;99.90
35746;DHT22;21870;42.812;74.628;2023-02-15T01:56:15;2.90;99.90
35746;DHT22;21870;42.812;74.628;2023-02-15T01:58:42;2.80;99.90
35746;DHT22;21870;42.812;74.628;2023-02-15T02:01:09;2.80;99.90
35746;DHT22;21870;42.812;74.628;2023-02-15T02:04:24;2.70;99.90
35746;DHT22;21870;42.812;74.628;2023-02-15T02:06:32;2.80;99.90
35746;DHT22;21870;42.812;74.628;2023-02-15T02:08:59;2.70;99.90
35746;DHT22;21870;42.812;74.628;2023-02-15T02:11:25;2.70;99.90
35746;DHT22;21870;42.812;74.628;2023-02-15T02:13:52;2.60;99.90
35746;DHT22;21870;42.812;74.628;2023-02-15T02:16:30;2.60;99.90
35746;DHT22;21870;42.812;74.628;2023-02-15T02:27:21;2.20;99.90
35746;DHT22;21870;42.812;74.628;2023-02-15T02:30:27;2.10;99.90
35746;DHT22;21870;42.812;74.628;2023-02-15T02:38:28;1.90;99.90
35746;DHT22;21870;42.812;74.628;2023-02-15T02:46:49;1.60;99.90
35746;DHT22;21870;42.812;74.628;2023-02-15T02:49:16;1.60;99.90
35746;DHT22;21870;42.812;74.628;2023-02-15T02:51:42;1.60;99.90
35746;DHT22;21870;42.812;74.628;2023-02-15T02:54:08;1.60;99.90
35746;DHT22;21870;42.812;74.628;2023-02-15T02:56:41;1.60;99.90
35746;DHT22;21870;42.812;74.628;2023-02-15T03:02:17;1.70;99.90
35746;DHT22;21870;42.812;74.628;2023-02-15T03:04:47;1.70;99.90
35746;DHT22;21870;42.812;74.628;2023-02-15T03:07:21;1.80;99.90
35746;DHT22;21870;42.812;74.628;2023-02-15T03:09:56;1.80;99.90
35746;DHT22;21870;42.812;74.628;2023-02-15T03:12:38;2.00;99.90
35746;DHT22;21870;42.812;74.628;2023-02-15T03:15:15;2.10;99.90
35746;DHT22;21870;42.812;74.628;2023-02-15T03:17:45;2.20;99.90
35746;DHT22;21870;42.812;74.628;2023-02-15T03:20:26;2.40;99.90
35746;DHT22;21870;42.812;74.628;2023-02-15T03:23:01;2.50;99.90
35746;DHT22;21870;42.812;74.628;2023-02-15T03:25:34;2.70;99.90
35746;DHT22;21870;42.812;74.628;2023-02-15T03:28:06;2.80;99.90
35746;DHT22;21870;42.812;74.628;2023-02-15T03:30:34;3.00;99.90
35746;DHT22;21870;42.812;74.628;2023-02-15T03:33:02;3.10;99.90
35746;DHT22;21870;42.812;74.628;2023-02-15T03:38:40;3.50;99.90
35746;DHT22;21870;42.812;74.628;2023-02-15T03:41:09;3.70;99.90
35746;DHT22;21870;42.812;74.628;2023-02-15T03:43:48;3.90;99.90
35746;DHT22;21870;42.812;74.628;2023-02-15T03:49:02;4.30;99.90
35746;DHT22;21870;42.812;74.628;2023-02-15T03:51:33;4.50;99.90
35746;DHT22;21870;42.812;74.628;2023-02-15T03:54:17;4.70;99.90
35746;DHT22;21870;42.812;74.628;2023-02-15T03:57:03;4.90;99.90
35746;DHT22;21870;42.812;74.628;2023-02-15T03:59:48;5.00;99.90
35746;DHT22;21870;42.812;74.628;2023-02-15T04:03:07;5.20;99.90
35746;DHT22;21870;42.812;74.628;2023-02-15T04:05:35;5.30;99.90
35746;DHT22;21870;42.812;74.628;2023-02-15T04:08:02;5.40;99.90
35746;DHT22;21870;42.812;74.628;2023-02-15T04:10:28;5.60;99.90
35746;DHT22;21870;42.812;74.628;2023-02-15T04:13:12;5.70;99.90
35746;DHT22;21870;42.812;74.628;2023-02-15T04:15:38;5.90;99.90
35746;DHT22;21870;42.812;74.628;2023-02-15T04:18:22;6.10;99.90
35746;DHT22;21870;42.812;74.628;2023-02-15T04:21:07;6.40;99.90
35746;DHT22;21870;42.812;74.628;2023-02-15T04:23:52;6.40;99.90
35746;DHT22;21870;42.812;74.628;2023-02-15T04:26:36;6.50;99.90
35746;DHT22;21870;42.812;74.628;2023-02-15T04:29:02;6.70;99.90
35746;DHT22;21870;42.812;74.628;2023-02-15T04:31:28;6.90;99.90
35746;DHT22;21870;42.812;74.628;2023-02-15T04:33:55;7.00;99.90
35746;DHT22;21870;42.812;74.628;2023-02-15T04:36:21;7.20;99.90
35746;DHT22;21870;42.812;74.628;2023-02-15T04:38:47;7.40;99.90
35746;DHT22;21870;42.812;74.628;2023-02-15T04:41:13;7.40;99.90
35746;DHT22;21870;42.812;74.628;2023-02-15T04:43:39;7.60;99.90
35746;DHT22;21870;42.812;74.628;2023-02-15T04:46:05;7.70;99.90
35746;DHT22;21870;42.812;74.628;2023-02-15T04:48:31;7.80;99.90
35746;DHT22;21870;42.812;74.628;2023-02-15T04:50:57;8.00;99.90
35746;DHT22;21870;42.812;74.628;2023-02-15T04:53:23;8.00;99.90
35746;DHT22;21870;42.812;74.628;2023-02-15T04:55:49;8.20;99.90
35746;DHT22;21870;42.812;74.628;2023-02-15T04:58:15;8.20;99.90
35746;DHT22;21870;42.812;74.628;2023-02-15T05:00:41;8.20;99.90
35746;DHT22;21870;42.812;74.628;2023-02-15T05:03:07;8.40;99.90
35746;DHT22;21870;42.812;74.628;2023-02-15T05:05:33;8.40;99.90
35746;DHT22;21870;42.812;74.628;2023-02-15T05:07:59;8.60;99.90
35746;DHT22;21870;42.812;74.628;2023-02-15T05:10:26;8.80;99.90
35746;DHT22;21870;42.812;74.628;2023-02-15T05:12:57;9.00;99.90
35746;DHT22;21870;42.812;74.628;2023-02-15T05:15:23;9.10;99.90
35746;DHT22;21870;42.812;74.628;2023-02-15T05:17:50;9.20;99.90
35746;DHT22;21870;42.812;74.628;2023-02-15T05:20:16;9.30;99.90
35746;DHT22;21870;42.812;74.628;2023-02-15T05:22:42;9.60;99.90
35746;DHT22;21870;42.812;74.628;2023-02-15T05:25:08;9.70;99.90
35746;DHT22;21870;42.812;74.628;2023-02-15T05:27:53;9.90;99.90
35746;DHT22;21870;42.812;74.628;2023-02-15T05:30:38;10.00;99.90
35746;DHT22;21870;42.812;74.628;2023-02-15T05:33:06;10.10;99.90
35746;DHT22;21870;42.812;74.628;2023-02-15T05:35:33;10.10;99.90
35746;DHT22;21870;42.812;74.628;2023-02-15T05:37:59;10.00;99.90
35746;DHT22;21870;42.812;74.628;2023-02-15T05:40:26;10.00;99.90
35746;DHT22;21870;42.812;74.628;2023-02-15T05:42:52;10.20;99.90
35746;DHT22;21870;42.812;74.628;2023-02-15T05:45:18;10.10;99.90
35746;DHT22;21870;42.812;74.628;2023-02-15T05:47:44;10.00;99.90
35746;DHT22;21870;42.812;74.628;2023-02-15T05:50:11;10.10;99.90
35746;DHT22;21870;42.812;74.628;2023-02-15T05:52:37;10.10;99.90
35746;DHT22;21870;42.812;74.628;2023-02-15T05:55:04;10.20;99.90
35746;DHT22;21870;42.812;74.628;2023-02-15T05:57:30;10.30;99.90
35746;DHT22;21870;42.812;74.628;2023-02-15T05:59:56;10.60;99.90
35746;DHT22;21870;42.812;74.628;2023-02-15T06:02:22;10.60;99.90
35746;DHT22;21870;42.812;74.628;2023-02-15T06:04:48;10.50;99.90
35746;DHT22;21870;42.812;74.628;2023-02-15T06:07:15;10.50;99.90
35746;DHT22;21870;42.812;74.628;2023-02-15T06:09:41;10.40;99.90
35746;DHT22;21870;42.812;74.628;2023-02-15T06:12:07;10.30;99.90
35746;DHT22;21870;42.812;74.628;2023-02-15T06:14:33;10.40;99.90
35746;DHT22;21870;42.812;74.628;2023-02-15T06:16:59;10.50;99.90
35746;DHT22;21870;42.812;74.628;2023-02-15T06:19:25;10.70;99.90
35746;DHT22;21870;42.812;74.628;2023-02-15T06:21:51;10.70;99.90
35746;DHT22;21870;42.812;74.628;2023-02-15T06:24:17;10.80;99.90
35746;DHT22;21870;42.812;74.628;2023-02-15T06:26:43;10.70;99.90
35746;DHT22;21870;42.812;74.628;2023-02-15T06:29:09;10.70;99.90
35746;DHT22;21870;42.812;74.628;2023-02-15T06:31:35;10.70;99.90
35746;DHT22;21870;42.812;74.628;2023-02-15T06:34:01;10.80;99.90
35746;DHT22;21870;42.812;74.628;2023-02-15T06:36:28;11.00;99.90
35746;DHT22;21870;42.812;74.628;2023-02-15T06:38:55;10.90;99.90
35746;DHT22;21870;42.812;74.628;2023-02-15T06:41:22;11.00;99.90
35746;DHT22;21870;42.812;74.628;2023-02-15T06:43:48;11.00;99.90
35746;DHT22;21870;42.812;74.628;2023-02-15T06:46:14;10.90;99.90
35746;DHT22;21870;42.812;74.628;2023-02-15T06:48:40;10.80;99.90
35746;DHT22;21870;42.812;74.628;2023-02-15T06:51:06;10.60;99.90
35746;DHT22;21870;42.812;74.628;2023-02-15T06:53:32;10.70;99.90
35746;DHT22;21870;42.812;74.628;2023-02-15T06:56:03;10.70;99.90
35746;DHT22;21870;42.812;74.628;2023-02-15T06:58:32;10.90;99.90
35746;DHT22;21870;42.812;74.628;2023-02-15T07:00:59;10.70;99.90
35746;DHT22;21870;42.812;74.628;2023-02-15T07:03:25;10.50;99.90
35746;DHT22;21870;42.812;74.628;2023-02-15T07:05:59;10.40;99.90
35746;DHT22;21870;42.812;74.628;2023-02-15T07:08:26;10.30;99.90
35746;DHT22;21870;42.812;74.628;2023-02-15T07:10:54;10.00;99.90
35746;DHT22;21870;42.812;74.628;2023-02-15T07:13:20;9.80;99.90
35746;DHT22;21870;42.812;74.628;2023-02-15T07:15:47;9.70;99.90
35746;DHT22;21870;42.812;74.628;2023-02-15T07:18:13;9.70;99.90
35746;DHT22;21870;42.812;74.628;2023-02-15T07:20:39;9.60;99.90
35746;DHT22;21870;42.812;74.628;2023-02-15T07:23:07;9.80;99.90
35746;DHT22;21870;42.812;74.628;2023-02-15T07:25:34;9.70;99.90
35746;DHT22;21870;42.812;74.628;2023-02-15T07:28:03;9.80;99.90
35746;DHT22;21870;42.812;74.628;2023-02-15T07:30:29;9.70;99.90
35746;DHT22;21870;42.812;74.628;2023-02-15T07:32:57;9.70;99.90
35746;DHT22;21870;42.812;74.628;2023-02-15T07:35:50;9.40;99.90
35746;DHT22;21870;42.812;74.628;2023-02-15T07:38:16;9.40;99.90
35746;DHT22;21870;42.812;74.628;2023-02-15T07:40:43;9.40;99.90
35746;DHT22;21870;42.812;74.628;2023-02-15T07:43:10;9.40;99.90
35746;DHT22;21870;42.812;74.628;2023-02-15T07:45:37;9.30;99.90
35746;DHT22;21870;42.812;74.628;2023-02-15T07:48:04;9.30;99.90
35746;DHT22;21870;42.812;74.628;2023-02-15T07:50:31;9.30;99.90
35746;DHT22;21870;42.812;74.628;2023-02-15T07:52:57;9.50;99.90
35746;DHT22;21870;42.812;74.628;2023-02-15T07:55:23;9.60;99.90
35746;DHT22;21870;42.812;74.628;2023-02-15T07:57:50;9.60;99.90
35746;DHT22;21870;42.812;74.628;2023-02-15T08:00:19;9.70;99.90
35746;DHT22;21870;42.812;74.628;2023-02-15T08:02:50;9.40;99.90
35746;DHT22;21870;42.812;74.628;2023-02-15T08:05:38;9.20;99.90
35746;DHT22;21870;42.812;74.628;2023-02-15T08:08:04;9.00;99.90
35746;DHT22;21870;42.812;74.628;2023-02-15T08:10:31;8.80;99.90
35746;DHT22;21870;42.812;74.628;2023-02-15T08:13:15;8.60;99.90
35746;DHT22;21870;42.812;74.628;2023-02-15T08:15:51;8.20;99.90
35746;DHT22;21870;42.812;74.628;2023-02-15T08:18:17;8.20;99.90
35746;DHT22;21870;42.812;74.628;2023-02-15T08:20:48;8.10;99.90
35746;DHT22;21870;42.812;74.628;2023-02-15T08:23:14;7.90;99.90
35746;DHT22;21870;42.812;74.628;2023-02-15T08:25:40;7.80;99.90
35746;DHT22;21870;42.812;74.628;2023-02-15T08:28:09;7.70;99.90
35746;DHT22;21870;42.812;74.628;2023-02-15T08:30:35;7.70;99.90
35746;DHT22;21870;42.812;74.628;2023-02-15T08:33:01;7.80;99.90
35746;DHT22;21870;42.812;74.628;2023-02-15T08:35:28;7.90;99.90
35746;DHT22;21870;42.812;74.628;2023-02-15T08:37:54;7.90;99.90
35746;DHT22;21870;42.812;74.628;2023-02-15T08:40:21;7.90;99.90
35746;DHT22;21870;42.812;74.628;2023-02-15T08:42:47;7.90;99.90
35746;DHT22;21870;42.812;74.628;2023-02-15T08:45:13;7.90;99.90
35746;DHT22;21870;42.812;74.628;2023-02-15T08:47:39;7.90;99.90
35746;DHT22;21870;42.812;74.628;2023-02-15T08:50:05;7.90;99.90
35746;DHT22;21870;42.812;74.628;2023-02-15T08:52:31;7.90;99.90
35746;DHT22;21870;42.812;74.628;2023-02-15T08:54:57;7.90;99.90
35746;DHT22;21870;42.812;74.628;2023-02-15T08:57:23;8.00;99.90
35746;DHT22;21870;42.812;74.628;2023-02-15T08:59:50;8.00;99.90
35746;DHT22;21870;42.812;74.628;2023-02-15T09:02:16;8.00;99.90
35746;DHT22;21870;42.812;74.628;2023-02-15T09:04:42;8.00;99.90
35746;DHT22;21870;42.812;74.628;2023-02-15T09:07:08;8.10;99.90
35746;DHT22;21870;42.812;74.628;2023-02-15T09:09:34;8.00;99.90
35746;DHT22;21870;42.812;74.628;2023-02-15T09:12:00;8.10;99.90
35746;DHT22;21870;42.812;74.628;2023-02-15T09:14:27;8.20;99.90
35746;DHT22;21870;42.812;74.628;2023-02-15T09:16:53;8.20;99.90
35746;DHT22;21870;42.812;74.628;2023-02-15T09:19:21;8.10;99.90
35746;DHT22;21870;42.812;74.628;2023-02-15T09:21:47;8.20;99.90
35746;DHT22;21870;42.812;74.628;2023-02-15T09:24:15;8.20;99.90
35746;DHT22;21870;42.812;74.628;2023-02-15T09:26:44;8.30;99.90
35746;DHT22;21870;42.812;74.628;2023-02-15T09:29:11;8.20;99.90
35746;DHT22;21870;42.812;74.628;2023-02-15T09:31:39;8.30;99.90
35746;DHT22;21870;42.812;74.628;2023-02-15T09:34:07;8.30;99.90
35746;DHT22;21870;42.812;74.628;2023-02-15T09:36:35;8.10;99.90
35746;DHT22;21870;42.812;74.628;2023-02-15T09:44:31;8.10;99.90
35746;DHT22;21870;42.812;74.628;2023-02-15T10:03:43;7.70;99.90
35746;DHT22;21870;42.812;74.628;2023-02-15T10:11:37;7.80;99.90
35746;DHT22;21870;42.812;74.628;2023-02-15T10:25:20;7.90;99.90
35746;DHT22;21870;42.812;74.628;2023-02-15T10:27:49;7.80;99.90
35746;DHT22;21870;42.812;74.628;2023-02-15T10:30:39;7.80;99.90
35746;DHT22;21870;42.812;74.628;2023-02-15T10:33:37;7.80;99.90
35746;DHT22;21870;42.812;74.628;2023-02-15T10:55:36;7.40;99.90
35746;DHT22;21870;42.812;74.628;2023-02-15T10:58:17;7.40;99.90
35746;DHT22;21870;42.812;74.628;2023-02-15T11:01:10;7.40;99.90
35746;DHT22;21870;42.812;74.628;2023-02-15T11:06:27;7.40;99.90
35746;DHT22;21870;42.812;74.628;2023-02-15T11:09:13;7.40;99.90
35746;DHT22;21870;42.812;74.628;2023-02-15T11:11:45;7.40;99.90
35746;DHT22;21870;42.812;74.628;2023-02-15T11:17:26;7.30;99.90
35746;DHT22;21870;42.812;74.628;2023-02-15T11:22:49;7.40;99.90
35746;DHT22;21870;42.812;74.628;2023-02-15T11:25:37;7.40;99.90
35746;DHT22;21870;42.812;74.628;2023-02-15T11:28:06;7.40;99.90
35746;DHT22;21870;42.812;74.628;2023-02-15T11:30:44;7.30;99.90
35746;DHT22;21870;42.812;74.628;2023-02-15T11:33:21;7.20;99.90
35746;DHT22;21870;42.812;74.628;2023-02-15T11:35:57;7.20;99.90
35746;DHT22;21870;42.812;74.628;2023-02-15T11:38:34;7.20;99.90
35746;DHT22;21870;42.812;74.628;2023-02-15T11:41:13;7.10;99.90
35746;DHT22;21870;42.812;74.628;2023-02-15T11:43:53;7.30;99.90
35746;DHT22;21870;42.812;74.628;2023-02-15T11:46:20;7.30;99.90
35746;DHT22;21870;42.812;74.628;2023-02-15T11:48:47;7.30;99.90
35746;DHT22;21870;42.812;74.628;2023-02-15T11:51:19;7.30;99.90
35746;DHT22;21870;42.812;74.628;2023-02-15T11:53:47;7.20;99.90
35746;DHT22;21870;42.812;74.628;2023-02-15T11:56:21;7.10;99.90
35746;DHT22;21870;42.812;74.628;2023-02-15T11:59:04;7.10;99.90
35746;DHT22;21870;42.812;74.628;2023-02-15T12:01:45;7.10;99.90
35746;DHT22;21870;42.812;74.628;2023-02-15T12:04:30;7.10;99.90
35746;DHT22;21870;42.812;74.628;2023-02-15T12:06:58;7.00;99.90
35746;DHT22;21870;42.812;74.628;2023-02-15T12:10:02;6.80;99.90
35746;DHT22;21870;42.812;74.628;2023-02-15T12:12:34;6.70;99.90
35746;DHT22;21870;42.812;74.628;2023-02-15T12:15:07;6.70;99.90
35746;DHT22;21870;42.812;74.628;2023-02-15T12:22:39;6.40;99.90
35746;DHT22;21870;42.812;74.628;2023-02-15T12:26:11;6.30;99.90
35746;DHT22;21870;42.812;74.628;2023-02-15T12:30:56;6.20;99.90
35746;DHT22;21870;42.812;74.628;2023-02-15T12:33:35;6.10;99.90
35746;DHT22;21870;42.812;74.628;2023-02-15T12:36:30;6.10;99.90
35746;DHT22;21870;42.812;74.628;2023-02-15T12:42:02;6.10;99.90
35746;DHT22;21870;42.812;74.628;2023-02-15T12:44:34;6.20;99.90
35746;DHT22;21870;42.812;74.628;2023-02-15T12:49:28;6.10;99.90
35746;DHT22;21870;42.812;74.628;2023-02-15T12:51:57;6.00;99.90
35746;DHT22;21870;42.812;74.628;2023-02-15T12:54:34;6.00;99.90
35746;DHT22;21870;42.812;74.628;2023-02-15T12:57:22;6.00;99.90
35746;DHT22;21870;42.812;74.628;2023-02-15T13:00:06;5.90;99.90
35746;DHT22;21870;42.812;74.628;2023-02-15T13:02:56;5.80;99.90
35746;DHT22;21870;42.812;74.628;2023-02-15T13:05:44;5.70;99.90
35746;DHT22;21870;42.812;74.628;2023-02-15T13:08:17;5.50;99.90
35746;DHT22;21870;42.812;74.628;2023-02-15T13:10:55;5.30;99.90
35746;DHT22;21870;42.812;74.628;2023-02-15T13:13:26;5.30;99.90
35746;DHT22;21870;42.812;74.628;2023-02-15T13:15:55;5.40;99.90
35746;DHT22;21870;42.812;74.628;2023-02-15T13:18:42;5.40;99.90
35746;DHT22;21870;42.812;74.628;2023-02-15T13:21:18;5.30;99.90
35746;DHT22;21870;42.812;74.628;2023-02-15T13:23:48;5.30;99.90
35746;DHT22;21870;42.812;74.628;2023-02-15T13:26:19;5.30;99.90
35746;DHT22;21870;42.812;74.628;2023-02-15T13:28:54;5.40;99.90
35746;DHT22;21870;42.812;74.628;2023-02-15T13:31:24;5.20;99.90
35746;DHT22;21870;42.812;74.628;2023-02-15T13:33:55;5.20;99.90
35746;DHT22;21870;42.812;74.628;2023-02-15T13:39:19;5.20;99.90
35746;DHT22;21870;42.812;74.628;2023-02-15T13:44:38;5.20;99.90
35746;DHT22;21870;42.812;74.628;2023-02-15T13:52:47;5.10;99.90
35746;DHT22;21870;42.812;74.628;2023-02-15T13:55:37;5.20;99.90
35746;DHT22;21870;42.812;74.628;2023-02-15T13:58:31;5.20;99.90
35746;DHT22;21870;42.812;74.628;2023-02-15T14:01:10;5.20;99.90
35746;DHT22;21870;42.812;74.628;2023-02-15T14:15:39;5.20;99.90
35746;DHT22;21870;42.812;74.628;2023-02-15T14:18:24;5.20;99.90
35746;DHT22;21870;42.812;74.628;2023-02-15T14:24:16;5.10;99.90
35746;DHT22;21870;42.812;74.628;2023-02-15T14:27:10;5.10;99.90
35746;DHT22;21870;42.812;74.628;2023-02-15T14:30:32;5.20;99.90
35746;DHT22;21870;42.812;74.628;2023-02-15T14:32:34;5.10;99.90
35746;DHT22;21870;42.812;74.628;2023-02-15T14:35:17;5.30;99.90
35746;DHT22;21870;42.812;74.628;2023-02-15T14:38:09;5.20;99.90
35746;DHT22;21870;42.812;74.628;2023-02-15T14:40:57;5.20;99.90
35746;DHT22;21870;42.812;74.628;2023-02-15T14:43:37;5.20;99.90
35746;DHT22;21870;42.812;74.628;2023-02-15T14:49:12;5.20;99.90
35746;DHT22;21870;42.812;74.628;2023-02-15T14:54:10;5.20;99.90
35746;DHT22;21870;42.812;74.628;2023-02-15T14:56:36;5.10;99.90
35746;DHT22;21870;42.812;74.628;2023-02-15T14:59:24;5.10;99.90
35746;DHT22;21870;42.812;74.628;2023-02-15T15:02:09;5.00;99.90
35746;DHT22;21870;42.812;74.628;2023-02-15T15:05:11;5.00;99.90
35746;DHT22;21870;42.812;74.628;2023-02-15T15:07:49;4.90;99.90
35746;DHT22;21870;42.812;74.628;2023-02-15T15:18:02;4.90;99.90
35746;DHT22;21870;42.812;74.628;2023-02-15T15:20:45;4.90;99.90
35746;DHT22;21870;42.812;74.628;2023-02-15T15:28:06;4.80;99.90
35746;DHT22;21870;42.812;74.628;2023-02-15T15:33:23;4.80;99.90
35746;DHT22;21870;42.812;74.628;2023-02-15T15:50:40;4.90;99.90
35746;DHT22;21870;42.812;74.628;2023-02-15T15:53:06;4.90;99.90
35746;DHT22;21870;42.812;74.628;2023-02-15T15:55:41;4.80;99.90
35746;DHT22;21870;42.812;74.628;2023-02-15T15:58:08;4.80;99.90
35746;DHT22;21870;42.812;74.628;2023-02-15T16:05:43;4.80;99.90
35746;DHT22;21870;42.812;74.628;2023-02-15T16:08:09;4.80;99.90
35746;DHT22;21870;42.812;74.628;2023-02-15T16:10:35;4.70;99.90
35746;DHT22;21870;42.812;74.628;2023-02-15T16:13:05;4.80;99.90
35746;DHT22;21870;42.812;74.628;2023-02-15T16:15:46;4.80;99.90
35746;DHT22;21870;42.812;74.628;2023-02-15T16:18:22;4.80;99.90
35746;DHT22;21870;42.812;74.628;2023-02-15T16:21:00;4.80;99.90
35746;DHT22;21870;42.812;74.628;2023-02-15T16:28:37;4.70;99.90
35746;DHT22;21870;42.812;74.628;2023-02-15T16:31:12;4.70;99.90
35746;DHT22;21870;42.812;74.628;2023-02-15T16:33:40;4.60;99.90
35746;DHT22;21870;42.812;74.628;2023-02-15T16:36:23;4.60;99.90
35746;DHT22;21870;42.812;74.628;2023-02-15T16:41:21;4.60;99.90
35746;DHT22;21870;42.812;74.628;2023-02-15T16:43:50;4.50;99.90
35746;DHT22;21870;42.812;74.628;2023-02-15T16:48:46;4.60;99.90
35746;DHT22;21870;42.812;74.628;2023-02-15T16:51:25;4.60;99.90
35746;DHT22;21870;42.812;74.628;2023-02-15T16:53:53;4.50;99.90
35746;DHT22;21870;42.812;74.628;2023-02-15T16:56:30;4.50;99.90
35746;DHT22;21870;42.812;74.628;2023-02-15T16:58:58;4.40;99.90
35746;DHT22;21870;42.812;74.628;2023-02-15T17:01:28;4.40;99.90
35746;DHT22;21870;42.812;74.628;2023-02-15T17:07:18;4.10;99.90
35746;DHT22;21870;42.812;74.628;2023-02-15T17:09:52;3.90;99.90
35746;DHT22;21870;42.812;74.628;2023-02-15T17:18:22;3.90;99.90
35746;DHT22;21870;42.812;74.628;2023-02-15T17:20:49;3.80;99.90
35746;DHT22;21870;42.812;74.628;2023-02-15T17:23:32;3.80;99.90
35746;DHT22;21870;42.812;74.628;2023-02-15T17:26:01;3.70;99.90
35746;DHT22;21870;42.812;74.628;2023-02-15T17:28:30;3.70;99.90
35746;DHT22;21870;42.812;74.628;2023-02-15T17:30:58;3.60;99.90
35746;DHT22;21870;42.812;74.628;2023-02-15T17:33:35;3.60;99.90
35746;DHT22;21870;42.812;74.628;2023-02-15T17:36:05;3.60;99.90
35746;DHT22;21870;42.812;74.628;2023-02-15T17:38:32;3.50;99.90
35746;DHT22;21870;42.812;74.628;2023-02-15T17:40:58;3.50;99.90
35746;DHT22;21870;42.812;74.628;2023-02-15T17:43:25;3.50;99.90
35746;DHT22;21870;42.812;74.628;2023-02-15T17:45:52;3.50;99.90
35746;DHT22;21870;42.812;74.628;2023-02-15T17:48:26;3.60;99.90
35746;DHT22;21870;42.812;74.628;2023-02-15T17:50:57;3.60;99.90
35746;DHT22;21870;42.812;74.628;2023-02-15T17:53:24;3.60;99.90
35746;DHT22;21870;42.812;74.628;2023-02-15T17:55:50;3.60;99.90
35746;DHT22;21870;42.812;74.628;2023-02-15T17:58:18;3.60;99.90
35746;DHT22;21870;42.812;74.628;2023-02-15T18:00:46;3.60;99.90
35746;DHT22;21870;42.812;74.628;2023-02-15T18:03:52;3.70;99.90
35746;DHT22;21870;42.812;74.628;2023-02-15T18:06:41;3.60;99.90
35746;DHT22;21870;42.812;74.628;2023-02-15T18:09:26;3.60;99.90
35746;DHT22;21870;42.812;74.628;2023-02-15T18:12:24;3.60;99.90
35746;DHT22;21870;42.812;74.628;2023-02-15T18:14:51;3.60;99.90
35746;DHT22;21870;42.812;74.628;2023-02-15T18:17:36;3.60;99.90
35746;DHT22;21870;42.812;74.628;2023-02-15T18:20:14;3.60;99.90
35746;DHT22;21870;42.812;74.628;2023-02-15T18:22:43;3.60;99.90
35746;DHT22;21870;42.812;74.628;2023-02-15T18:25:16;3.60;99.90
35746;DHT22;21870;42.812;74.628;2023-02-15T18:27:42;3.60;99.90
35746;DHT22;21870;42.812;74.628;2023-02-15T18:30:14;3.60;99.90
35746;DHT22;21870;42.812;74.628;2023-02-15T18:32:42;3.60;99.90
35746;DHT22;21870;42.812;74.628;2023-02-15T18:35:14;3.60;99.90
35746;DHT22;21870;42.812;74.628;2023-02-15T18:37:41;3.70;99.90
35746;DHT22;21870;42.812;74.628;2023-02-15T18:40:15;3.70;99.90
35746;DHT22;21870;42.812;74.628;2023-02-15T18:42:41;3.50;99.90
35746;DHT22;21870;42.812;74.628;2023-02-15T18:45:16;3.50;99.90
35746;DHT22;21870;42.812;74.628;2023-02-15T18:47:44;3.50;99.90
35746;DHT22;21870;42.812;74.628;2023-02-15T18:50:16;3.50;99.90
35746;DHT22;21870;42.812;74.628;2023-02-15T18:52:44;3.30;99.90
35746;DHT22;21870;42.812;74.628;2023-02-15T18:55:22;3.50;99.90
35746;DHT22;21870;42.812;74.628;2023-02-15T18:57:52;3.50;99.90
35746;DHT22;21870;42.812;74.628;2023-02-15T19:00:21;3.50;99.90
35746;DHT22;21870;42.812;74.628;2023-02-15T19:02:49;3.50;99.90
35746;DHT22;21870;42.812;74.628;2023-02-15T19:05:16;3.50;99.90
35746;DHT22;21870;42.812;74.628;2023-02-15T19:07:45;3.60;99.90
35746;DHT22;21870;42.812;74.628;2023-02-15T19:10:21;3.40;99.90
35746;DHT22;21870;42.812;74.628;2023-02-15T19:12:48;3.40;99.90
35746;DHT22;21870;42.812;74.628;2023-02-15T19:15:17;3.40;99.90
35746;DHT22;21870;42.812;74.628;2023-02-15T19:17:44;3.40;99.90